Strona główna
METAR-TAF:

METAR-TAF

Lotnisko :

Port lotniczy Katowice-Pyrzowice

Katowice, Polska

Szerokość geograficzna: 50-28-27N, Długość geograficzna: 019-04-48E, wysokość: 284 m

Aktualna obserwacja pogody

Raport powstał 10 minut temu, godzina 21:30 UTC
Wiatr 3 kt od południe
Temperatura -4°C
Wilgotność 93%
Ciśnienie 1028 hPa
Widzialność: 2600 m
zamglenie

METAR: EPKT 232130Z 18003KT 2600 BR NSC M04/M05 Q1028

czas: 22:40 (21:40 UTC)

Prognoza

Raport powstał 41 minut temu, godzina 20:59 UTC
Prognoza ważna od 23 godzina 20 UTC do 24 godzina 18 UTC
Wiatr 2 kt z kierunków zmiennych
Widzialność: 2500 m
zamglenie
Stopniowe zmiany
od 24 godzina 02 UTC do 24 godzina 05 UTC
Wiatr 12 kt od południowy zachód
Widzialność 10 km lub więcej
Brak chmur poniżej 1500 m i brak chmur cumulonimbus
Przejściowo
od 24 godzina 05 UTC do 24 godzina 15 UTC
Wiatr 15 kt od południowo-południowy zachód w porywach dochodzący do 28 kt

TAF: EPKT 232059Z 2320/2418 VRB02KT 2500 BR NSC BECMG 2402/2405 22012KT CAVOK TEMPO 2405/2415 21015G28KT

Obserwacja i prognoza pogody dla ponad 4000 lotnisk (raport METAR i TAF).

Dostępne stacje oznaczono żółtymi i czerwonymi punktami na mapie.

Najedź kursorem aby zobaczyć nazwę stacji.

Kliknij aby zobaczyć obserwacje i prognozy pogody.

Aby zmienić mapę: kliknij na zielony przycisk z czarnym krzyżykiem, aby powiększyć; na zielony przycisk z myślnikiem, aby pomniejszyć; na zielone strzałki, aby przejść do map sąsiednich.


METAR-TAF: